Time;durP1;ratioP1;P1;durP2;ratioP2;P2;SDS_P1;SDS_P2;PMS_P1;PMS_P2;Temp;Humidity;BMP_temperature;BMP_pressure;BME280_temperature;BME280_humidity;BME280_pressure;Samples;Min_cycle;Max_cycle;Signal;HPM_P1;HPM_P2
2023/12/18 00:01:14;;;;;;;15.43;4.65;;;;;;;;;;5125892;27;20170;-64
2023/12/18 00:03:40;;;;;;;13.25;4.40;;;;;;;;;;5125980;27;20088;-63
2023/12/18 00:06:07;;;;;;;13.75;4.32;;;;;;;;;;5124045;27;20039;-64
2023/12/18 00:08:33;;;;;;;11.13;4.28;;;;;;;;;;5125699;27;20126;-64
2023/12/18 00:10:59;;;;;;;8.23;4.78;;;;;;;;;;5125661;27;20032;-63
2023/12/18 00:13:26;;;;;;;9.35;4.97;;;;;;;;;;5106107;27;20051;-63
2023/12/18 00:15:52;;;;;;;9.60;4.22;;;;;;;;;;5124460;27;20071;-63
2023/12/18 00:18:18;;;;;;;12.65;4.72;;;;;;;;;;5126089;27;20123;-64
2023/12/18 00:20:44;;;;;;;14.30;5.43;;;;;;;;;;5124484;27;20486;-64
2023/12/18 00:23:10;;;;;;;11.23;4.20;;;;;;;;;;5105270;27;20550;-64
2023/12/18 00:25:38;;;;;;;8.85;3.67;;;;;;;;;;5125896;27;20039;-64
2023/12/18 00:28:04;;;;;;;10.77;3.53;;;;;;;;;;5124279;27;20687;-63
2023/12/18 00:30:30;;;;;;;9.88;4.30;;;;;;;;;;5123851;27;20035;-64
2023/12/18 00:32:57;;;;;;;9.63;4.43;;;;;;;;;;5124999;27;20065;-64
2023/12/18 00:35:23;;;;;;;10.60;4.03;;;;;;;;;;5123210;27;20702;-64
2023/12/18 00:37:49;;;;;;;10.05;4.63;;;;;;;;;;5106037;27;20291;-64
2023/12/18 00:40:15;;;;;;;7.72;4.40;;;;;;;;;;5125035;27;20042;-64
2023/12/18 00:42:41;;;;;;;9.10;4.35;;;;;;;;;;5124166;27;20664;-64
2023/12/18 00:45:07;;;;;;;7.45;3.58;;;;;;;;;;5125049;27;20035;-64
2023/12/18 00:47:33;;;;;;;8.60;4.15;;;;;;;;;;5124711;27;20027;-64
2023/12/18 00:49:59;;;;;;;8.52;3.85;;;;;;;;;;5124383;27;20458;-64
2023/12/18 00:52:26;;;;;;;9.82;3.92;;;;;;;;;;5104168;27;20559;-64
2023/12/18 00:54:52;;;;;;;11.75;4.90;;;;;;;;;;5124495;27;20046;-64
2023/12/18 00:57:18;;;;;;;9.75;4.13;;;;;;;;;;5123959;27;20493;-64
2023/12/18 00:59:44;;;;;;;9.45;3.92;;;;;;;;;;5123440;27;20446;-64
2023/12/18 01:02:10;;;;;;;8.60;3.88;;;;;;;;;;5124277;27;20042;-64
2023/12/18 01:04:36;;;;;;;8.85;4.25;;;;;;;;;;5104816;27;20070;-64
2023/12/18 01:07:02;;;;;;;8.10;4.65;;;;;;;;;;5123064;27;20046;-64
2023/12/18 01:09:28;;;;;;;10.38;4.38;;;;;;;;;;5087916;27;20155;-64
2023/12/18 01:11:54;;;;;;;7.85;3.83;;;;;;;;;;5123604;27;20138;-64
2023/12/18 01:14:21;;;;;;;8.65;4.15;;;;;;;;;;5123066;27;20192;-64
2023/12/18 01:16:47;;;;;;;10.88;3.80;;;;;;;;;;5119623;27;20039;-64
2023/12/18 01:19:13;;;;;;;11.35;4.45;;;;;;;;;;5123710;27;21037;-64
2023/12/18 01:21:39;;;;;;;14.77;4.53;;;;;;;;;;5122350;27;20046;-62
2023/12/18 01:24:05;;;;;;;10.35;4.75;;;;;;;;;;5123036;27;20520;-63
2023/12/18 01:26:31;;;;;;;14.90;5.82;;;;;;;;;;5103879;27;20039;-63
2023/12/18 01:28:58;;;;;;;8.48;3.92;;;;;;;;;;5122789;27;20035;-64
2023/12/18 01:31:24;;;;;;;12.30;4.47;;;;;;;;;;5123247;27;21657;-63
2023/12/18 01:33:52;;;;;;;10.30;3.83;;;;;;;;;;5124085;27;20130;-63
2023/12/18 01:36:18;;;;;;;7.72;4.00;;;;;;;;;;5122609;27;20418;-63
2023/12/18 01:38:45;;;;;;;7.85;3.90;;;;;;;;;;5122795;27;20129;-63
2023/12/18 01:41:12;;;;;;;7.30;3.72;;;;;;;;;;5087546;27;20042;-63
2023/12/18 01:43:38;;;;;;;7.90;3.83;;;;;;;;;;5123805;27;20065;-63
2023/12/18 01:46:05;;;;;;;6.22;3.75;;;;;;;;;;5123745;27;20042;-63
2023/12/18 01:48:32;;;;;;;12.45;4.53;;;;;;;;;;5123705;27;20102;-62
2023/12/18 01:50:59;;;;;;;7.05;4.32;;;;;;;;;;5122685;27;20043;-64
2023/12/18 01:53:38;;;;;;;8.35;4.30;;;;;;;;;;5124499;27;20038;-64
2023/12/18 01:56:04;;;;;;;10.32;4.20;;;;;;;;;;5123699;27;20043;-64
2023/12/18 01:58:32;;;;;;;10.70;3.83;;;;;;;;;;5123708;27;20440;-64
2023/12/18 02:00:58;;;;;;;9.98;5.13;;;;;;;;;;5123400;27;20118;-64
2023/12/18 02:03:24;;;;;;;7.68;3.92;;;;;;;;;;5123771;27;20398;-64
2023/12/18 02:05:50;;;;;;;10.57;3.45;;;;;;;;;;5120575;28;20035;-64
2023/12/18 02:08:17;;;;;;;12.38;4.38;;;;;;;;;;5123561;28;20479;-64
2023/12/18 02:10:43;;;;;;;9.05;3.53;;;;;;;;;;5123659;28;20095;-64
2023/12/18 02:13:09;;;;;;;8.00;3.65;;;;;;;;;;5123208;28;20062;-64
2023/12/18 02:15:35;;;;;;;11.07;3.63;;;;;;;;;;5120789;28;20092;-64
2023/12/18 02:18:02;;;;;;;9.10;3.83;;;;;;;;;;5123808;28;20039;-65
2023/12/18 02:20:28;;;;;;;7.18;3.40;;;;;;;;;;5101933;28;20046;-64
2023/12/18 02:22:54;;;;;;;15.30;4.40;;;;;;;;;;5122345;28;20042;-64
2023/12/18 02:25:21;;;;;;;6.78;3.78;;;;;;;;;;5122565;28;20513;-64
2023/12/18 02:27:50;;;;;;;9.82;3.85;;;;;;;;;;5123353;28;20118;-63
2023/12/18 02:30:19;;;;;;;12.10;4.13;;;;;;;;;;5086493;28;20129;-63
2023/12/18 02:32:45;;;;;;;11.95;4.25;;;;;;;;;;5103624;28;20080;-63
2023/12/18 02:35:11;;;;;;;11.15;4.55;;;;;;;;;;5126989;27;20095;-63
2023/12/18 02:37:37;;;;;;;7.22;3.78;;;;;;;;;;5126691;27;21034;-63
2023/12/18 02:40:04;;;;;;;9.40;3.63;;;;;;;;;;5127161;27;20042;-63
2023/12/18 02:42:30;;;;;;;10.25;3.35;;;;;;;;;;5107850;27;20090;-64
2023/12/18 02:44:57;;;;;;;9.82;4.00;;;;;;;;;;5125742;27;20537;-64
2023/12/18 02:47:23;;;;;;;7.40;3.25;;;;;;;;;;5126809;27;20070;-64
2023/12/18 02:49:50;;;;;;;11.15;4.07;;;;;;;;;;5125546;27;20043;-64
2023/12/18 02:52:16;;;;;;;9.50;3.90;;;;;;;;;;5125834;27;20092;-64
2023/12/18 02:54:42;;;;;;;8.60;4.38;;;;;;;;;;5126748;27;20088;-64
2023/12/18 02:57:08;;;;;;;6.57;3.55;;;;;;;;;;5127059;27;20051;-64
2023/12/18 02:59:34;;;;;;;14.48;4.55;;;;;;;;;;5126162;27;20042;-64
2023/12/18 03:02:00;;;;;;;8.35;3.90;;;;;;;;;;5126813;27;20066;-64
2023/12/18 03:04:26;;;;;;;9.77;4.43;;;;;;;;;;5107550;27;20066;-63
2023/12/18 03:06:52;;;;;;;10.02;3.88;;;;;;;;;;5106389;27;20126;-65
2023/12/18 03:09:19;;;;;;;10.93;3.72;;;;;;;;;;5127552;27;20039;-63
2023/12/18 03:11:45;;;;;;;13.65;4.82;;;;;;;;;;5126113;27;20042;-64
2023/12/18 03:14:11;;;;;;;11.98;4.75;;;;;;;;;;5125554;27;20070;-63
2023/12/18 03:16:37;;;;;;;10.57;3.90;;;;;;;;;;5126086;27;20115;-64
2023/12/18 03:19:04;;;;;;;11.38;4.20;;;;;;;;;;5125805;27;20039;-64
2023/12/18 03:21:30;;;;;;;13.00;4.45;;;;;;;;;;5105697;27;20032;-64
2023/12/18 03:23:56;;;;;;;13.63;3.78;;;;;;;;;;5106348;27;20088;-64
2023/12/18 03:26:23;;;;;;;12.88;3.67;;;;;;;;;;5106674;27;20106;-64
2023/12/18 03:28:49;;;;;;;8.77;3.47;;;;;;;;;;5106855;27;20479;-63
2023/12/18 03:31:15;;;;;;;8.27;3.88;;;;;;;;;;5106115;27;21192;-63
2023/12/18 03:33:42;;;;;;;9.02;3.42;;;;;;;;;;5126457;27;20084;-63
2023/12/18 03:36:09;;;;;;;10.00;2.90;;;;;;;;;;5105981;27;20122;-63
2023/12/18 03:38:35;;;;;;;13.77;4.00;;;;;;;;;;5125976;27;20078;-64
2023/12/18 03:41:01;;;;;;;8.23;3.80;;;;;;;;;;5126280;27;20063;-64
2023/12/18 03:43:27;;;;;;;11.63;4.93;;;;;;;;;;5125925;27;20039;-62
2023/12/18 03:45:53;;;;;;;11.57;4.70;;;;;;;;;;5124511;27;20035;-63
2023/12/18 03:48:20;;;;;;;12.60;3.60;;;;;;;;;;5125890;27;20043;-66
2023/12/18 03:50:46;;;;;;;10.82;4.03;;;;;;;;;;5125448;27;20036;-64
2023/12/18 03:53:13;;;;;;;9.30;3.88;;;;;;;;;;5125567;27;20035;-64
2023/12/18 03:55:39;;;;;;;11.57;4.53;;;;;;;;;;5125873;27;20035;-64
2023/12/18 03:58:05;;;;;;;11.60;4.28;;;;;;;;;;5126374;27;20051;-64
2023/12/18 04:00:31;;;;;;;6.75;3.75;;;;;;;;;;5125107;27;20050;-64
2023/12/18 04:02:58;;;;;;;13.85;4.00;;;;;;;;;;5125933;27;20043;-64
2023/12/18 04:05:24;;;;;;;8.80;4.25;;;;;;;;;;5105387;27;20039;-64
2023/12/18 04:07:50;;;;;;;8.27;4.25;;;;;;;;;;5125477;27;20051;-64
2023/12/18 04:10:16;;;;;;;6.00;3.72;;;;;;;;;;5124210;27;20119;-64
2023/12/18 04:12:43;;;;;;;12.73;4.07;;;;;;;;;;5124505;27;20138;-64
2023/12/18 04:15:11;;;;;;;7.35;3.17;;;;;;;;;;5122554;27;20054;-64
2023/12/18 04:17:37;;;;;;;19.23;5.50;;;;;;;;;;5125369;27;20176;-64
2023/12/18 04:20:04;;;;;;;10.25;3.28;;;;;;;;;;5124878;27;20553;-64
2023/12/18 04:22:30;;;;;;;11.88;4.15;;;;;;;;;;5123269;27;20134;-64
2023/12/18 04:24:56;;;;;;;9.98;4.10;;;;;;;;;;5124856;27;20047;-64
2023/12/18 04:27:23;;;;;;;9.05;3.90;;;;;;;;;;5125293;27;20039;-64
2023/12/18 04:29:49;;;;;;;8.98;3.80;;;;;;;;;;5124613;27;20048;-64
2023/12/18 04:32:15;;;;;;;13.05;4.47;;;;;;;;;;5124821;27;20039;-64
2023/12/18 04:34:42;;;;;;;8.90;4.45;;;;;;;;;;5105814;27;20555;-64
2023/12/18 04:37:09;;;;;;;12.10;3.10;;;;;;;;;;5123549;27;20905;-64
2023/12/18 04:39:35;;;;;;;7.63;3.20;;;;;;;;;;5124918;27;20051;-65
2023/12/18 04:42:01;;;;;;;12.25;4.10;;;;;;;;;;5124109;27;20600;-65
2023/12/18 04:44:28;;;;;;;7.35;3.60;;;;;;;;;;5123827;27;20122;-64
2023/12/18 04:46:54;;;;;;;9.70;3.72;;;;;;;;;;5124577;27;20554;-64
2023/12/18 04:49:21;;;;;;;9.18;3.88;;;;;;;;;;5125183;27;20034;-63
2023/12/18 04:51:47;;;;;;;11.50;3.92;;;;;;;;;;5123359;27;20214;-64
2023/12/18 04:54:13;;;;;;;9.93;3.83;;;;;;;;;;5124610;27;20483;-63
2023/12/18 04:56:40;;;;;;;14.57;4.40;;;;;;;;;;5104343;28;20293;-64
2023/12/18 04:59:07;;;;;;;8.23;3.85;;;;;;;;;;5124699;27;20049;-64
2023/12/18 05:01:33;;;;;;;16.95;4.65;;;;;;;;;;5123549;27;20046;-63
2023/12/18 05:04:00;;;;;;;10.55;4.18;;;;;;;;;;5124535;27;20495;-64
2023/12/18 05:06:27;;;;;;;10.45;3.83;;;;;;;;;;5121664;27;20391;-63
2023/12/18 05:08:53;;;;;;;8.70;3.78;;;;;;;;;;5122490;27;20159;-63
2023/12/18 05:11:21;;;;;;;10.80;5.22;;;;;;;;;;5121709;27;20027;-63
2023/12/18 05:13:47;;;;;;;11.93;4.50;;;;;;;;;;5122190;27;20139;-63
2023/12/18 05:16:14;;;;;;;9.40;3.22;;;;;;;;;;5122525;27;20050;-64
2023/12/18 05:18:40;;;;;;;10.43;4.10;;;;;;;;;;5123408;27;20513;-63
2023/12/18 05:21:06;;;;;;;8.80;3.83;;;;;;;;;;5123214;27;20391;-64
2023/12/18 05:23:33;;;;;;;13.27;4.63;;;;;;;;;;5123361;27;20051;-63
2023/12/18 05:25:59;;;;;;;11.48;4.40;;;;;;;;;;5124034;27;20047;-63
2023/12/18 05:28:26;;;;;;;13.80;4.72;;;;;;;;;;5124471;27;20267;-63
2023/12/18 05:30:52;;;;;;;9.27;3.78;;;;;;;;;;5123668;27;20039;-64
2023/12/18 05:33:18;;;;;;;9.68;5.53;;;;;;;;;;5124197;27;20039;-64
2023/12/18 05:35:44;;;;;;;14.23;6.28;;;;;;;;;;5104287;27;20099;-64
2023/12/18 05:38:10;;;;;;;12.05;6.30;;;;;;;;;;5122945;27;20594;-64
2023/12/18 05:40:37;;;;;;;11.95;6.38;;;;;;;;;;5123240;27;20039;-63
2023/12/18 05:43:04;;;;;;;16.63;6.95;;;;;;;;;;5123896;27;21289;-65
2023/12/18 05:45:33;;;;;;;15.43;6.60;;;;;;;;;;5123077;27;20184;-63
2023/12/18 05:48:00;;;;;;;13.10;7.63;;;;;;;;;;5123357;27;20046;-64
2023/12/18 05:50:26;;;;;;;14.73;7.38;;;;;;;;;;5122869;27;20053;-64
2023/12/18 05:52:52;;;;;;;14.65;7.72;;;;;;;;;;5122584;27;20038;-64
2023/12/18 05:55:19;;;;;;;17.92;8.95;;;;;;;;;;5104309;27;20035;-63
2023/12/18 05:57:45;;;;;;;20.15;11.70;;;;;;;;;;5123209;27;20051;-64
2023/12/18 06:00:11;;;;;;;14.20;9.38;;;;;;;;;;5122789;27;20102;-64
2023/12/18 06:02:37;;;;;;;14.35;8.27;;;;;;;;;;5123832;27;20519;-64
2023/12/18 06:05:04;;;;;;;15.52;9.15;;;;;;;;;;5123656;27;20051;-64
2023/12/18 06:07:30;;;;;;;17.33;9.93;;;;;;;;;;5122169;28;20421;-64
2023/12/18 06:09:56;;;;;;;20.48;10.57;;;;;;;;;;5129396;27;20053;-64
2023/12/18 06:12:22;;;;;;;22.75;11.18;;;;;;;;;;5129639;27;20390;-64
2023/12/18 06:14:48;;;;;;;18.45;8.52;;;;;;;;;;5129103;27;20390;-64
2023/12/18 06:17:14;;;;;;;16.40;10.07;;;;;;;;;;5129857;27;20047;-64
2023/12/18 06:19:41;;;;;;;20.20;9.95;;;;;;;;;;5130994;27;20041;-64
2023/12/18 06:22:08;;;;;;;12.85;9.02;;;;;;;;;;5108260;27;20537;-63
2023/12/18 06:24:34;;;;;;;13.88;9.63;;;;;;;;;;5128606;27;20038;-63
2023/12/18 06:27:00;;;;;;;17.38;10.10;;;;;;;;;;5128637;27;20035;-63
2023/12/18 06:29:27;;;;;;;20.50;12.38;;;;;;;;;;5129869;27;20050;-63
2023/12/18 06:31:53;;;;;;;24.60;10.55;;;;;;;;;;5130664;27;20489;-64
2023/12/18 06:34:19;;;;;;;19.38;10.48;;;;;;;;;;5131628;27;20068;-64
2023/12/18 06:36:45;;;;;;;19.90;11.27;;;;;;;;;;5131534;27;20049;-64
2023/12/18 06:39:12;;;;;;;15.18;10.35;;;;;;;;;;5113775;27;20375;-64
2023/12/18 06:41:38;;;;;;;19.60;10.73;;;;;;;;;;5131104;27;20075;-64
2023/12/18 06:44:04;;;;;;;18.98;11.07;;;;;;;;;;5132144;27;20045;-64
2023/12/18 06:46:32;;;;;;;18.75;10.82;;;;;;;;;;5129057;27;20194;-64
2023/12/18 06:48:58;;;;;;;20.75;11.48;;;;;;;;;;5131441;27;20047;-64
2023/12/18 06:51:25;;;;;;;20.40;12.02;;;;;;;;;;5110551;27;20354;-63
2023/12/18 06:53:51;;;;;;;28.35;13.93;;;;;;;;;;5110893;27;20046;-64
2023/12/18 06:56:17;;;;;;;18.42;9.98;;;;;;;;;;5129764;27;20046;-64
2023/12/18 06:58:43;;;;;;;21.15;10.13;;;;;;;;;;5129840;27;20059;-64
2023/12/18 07:01:09;;;;;;;19.95;13.98;;;;;;;;;;5110499;27;20157;-64
2023/12/18 07:03:36;;;;;;;18.55;13.38;;;;;;;;;;5130713;27;20426;-64
2023/12/18 07:06:02;;;;;;;17.13;12.10;;;;;;;;;;5101997;27;20054;-64
2023/12/18 07:08:29;;;;;;;20.38;12.98;;;;;;;;;;5128668;27;20039;-64
2023/12/18 07:10:58;;;;;;;20.77;12.15;;;;;;;;;;5108621;27;20043;-65
2023/12/18 07:13:24;;;;;;;23.73;12.50;;;;;;;;;;5129133;27;20081;-64
2023/12/18 07:15:51;;;;;;;19.17;11.52;;;;;;;;;;5127640;27;20061;-64
2023/12/18 07:18:17;;;;;;;24.50;13.23;;;;;;;;;;5129477;27;20047;-64
2023/12/18 07:20:44;;;;;;;17.15;12.77;;;;;;;;;;5124680;27;20519;-63
2023/12/18 07:23:10;;;;;;;21.90;12.38;;;;;;;;;;5124704;27;20512;-65
2023/12/18 07:25:37;;;;;;;21.42;14.05;;;;;;;;;;5125502;27;20039;-63
2023/12/18 07:28:09;;;;;;;24.48;12.77;;;;;;;;;;5105935;27;20046;-64
2023/12/18 07:30:39;;;;;;;21.23;13.20;;;;;;;;;;5122038;27;20477;-63
2023/12/18 07:33:05;;;;;;;19.30;13.02;;;;;;;;;;5125639;27;20039;-64
2023/12/18 07:35:31;;;;;;;18.00;13.43;;;;;;;;;;5105963;27;20038;-64
2023/12/18 07:37:58;;;;;;;23.70;14.13;;;;;;;;;;5125225;27;20054;-64
2023/12/18 07:40:24;;;;;;;21.27;13.50;;;;;;;;;;5105778;27;20043;-63
2023/12/18 07:42:50;;;;;;;19.90;13.30;;;;;;;;;;5125247;27;20039;-63
2023/12/18 07:45:16;;;;;;;23.85;13.35;;;;;;;;;;5105200;27;20043;-64
2023/12/18 07:47:42;;;;;;;24.33;13.80;;;;;;;;;;5124487;27;20046;-64
2023/12/18 07:50:09;;;;;;;21.48;14.02;;;;;;;;;;5125355;27;20043;-64
2023/12/18 07:52:35;;;;;;;23.67;14.85;;;;;;;;;;5104047;27;20047;-64
2023/12/18 07:55:02;;;;;;;19.02;12.88;;;;;;;;;;5124188;27;20450;-64
2023/12/18 07:57:28;;;;;;;23.58;13.93;;;;;;;;;;5124850;27;20968;-63
2023/12/18 07:59:55;;;;;;;22.40;13.43;;;;;;;;;;5105038;27;20107;-63
2023/12/18 08:02:21;;;;;;;25.77;13.23;;;;;;;;;;5123890;27;20045;-63
2023/12/18 08:04:47;;;;;;;19.30;13.52;;;;;;;;;;5123315;27;20133;-63
2023/12/18 08:07:13;;;;;;;19.40;14.00;;;;;;;;;;5121601;27;20122;-63
2023/12/18 08:09:40;;;;;;;25.70;13.88;;;;;;;;;;5122485;27;20074;-64
2023/12/18 08:12:07;;;;;;;20.48;14.35;;;;;;;;;;5122086;27;20147;-63
2023/12/18 08:14:33;;;;;;;23.77;14.18;;;;;;;;;;5099368;28;20059;-63
2023/12/18 08:16:59;;;;;;;23.48;13.55;;;;;;;;;;5101748;28;20556;-64
2023/12/18 08:19:26;;;;;;;17.95;12.05;;;;;;;;;;5104671;28;20056;-64
2023/12/18 08:21:52;;;;;;;23.38;13.05;;;;;;;;;;5103341;28;20059;-64
2023/12/18 08:24:20;;;;;;;18.73;14.05;;;;;;;;;;5104219;28;20364;-63
2023/12/18 08:26:49;;;;;;;23.23;13.43;;;;;;;;;;5104026;28;20055;-64
2023/12/18 08:29:16;;;;;;;24.13;13.00;;;;;;;;;;5104394;28;20055;-64
2023/12/18 08:31:42;;;;;;;22.65;12.35;;;;;;;;;;5085098;28;20043;-64
2023/12/18 08:34:09;;;;;;;18.83;12.65;;;;;;;;;;5105122;28;20184;-64
2023/12/18 08:36:36;;;;;;;19.60;13.00;;;;;;;;;;5103302;28;20043;-63
2023/12/18 08:39:03;;;;;;;22.13;13.15;;;;;;;;;;5103604;28;20078;-63
2023/12/18 08:41:29;;;;;;;27.73;13.77;;;;;;;;;;5103694;28;20165;-64
2023/12/18 08:43:55;;;;;;;23.25;13.23;;;;;;;;;;5103333;28;20051;-63
2023/12/18 08:46:21;;;;;;;19.88;13.25;;;;;;;;;;5103401;28;20373;-64
2023/12/18 08:48:47;;;;;;;21.08;12.40;;;;;;;;;;5104897;28;20036;-64
2023/12/18 08:51:16;;;;;;;27.73;12.65;;;;;;;;;;5101355;28;20108;-64
2023/12/18 08:53:42;;;;;;;17.30;11.65;;;;;;;;;;5102240;28;20048;-64
2023/12/18 08:56:08;;;;;;;23.67;12.60;;;;;;;;;;5102156;28;20247;-64
2023/12/18 08:58:34;;;;;;;18.48;11.68;;;;;;;;;;5103118;28;20142;-63
2023/12/18 09:01:00;;;;;;;20.42;12.30;;;;;;;;;;5103111;28;20115;-62
2023/12/18 09:03:27;;;;;;;20.02;11.90;;;;;;;;;;5103830;28;20147;-64
2023/12/18 09:05:53;;;;;;;19.77;12.07;;;;;;;;;;5103442;28;20044;-64
2023/12/18 09:08:19;;;;;;;20.27;11.48;;;;;;;;;;5103789;28;20050;-63
2023/12/18 09:10:46;;;;;;;23.30;13.10;;;;;;;;;;5102648;28;20031;-64
2023/12/18 09:13:12;;;;;;;30.38;13.05;;;;;;;;;;5107413;27;20059;-64
2023/12/18 09:15:40;;;;;;;21.27;13.18;;;;;;;;;;5123460;27;20054;-66
2023/12/18 09:18:07;;;;;;;17.58;13.02;;;;;;;;;;5123779;27;20113;-63
2023/12/18 09:20:40;;;;;;;23.90;14.23;;;;;;;;;;5123787;27;20574;-64
2023/12/18 09:23:08;;;;;;;22.13;13.05;;;;;;;;;;5123769;27;20042;-65
2023/12/18 09:25:34;;;;;;;21.55;13.32;;;;;;;;;;5123275;27;20055;-64
2023/12/18 09:28:01;;;;;;;24.92;12.85;;;;;;;;;;5103872;27;20089;-63
2023/12/18 09:30:27;;;;;;;17.17;12.05;;;;;;;;;;5123727;27;21030;-64
2023/12/18 09:32:53;;;;;;;31.17;13.30;;;;;;;;;;5123695;27;20046;-64
2023/12/18 09:35:19;;;;;;;21.40;12.63;;;;;;;;;;5123730;27;20050;-64
2023/12/18 09:37:45;;;;;;;22.00;12.20;;;;;;;;;;5123439;27;20035;-65
2023/12/18 09:40:11;;;;;;;20.73;13.20;;;;;;;;;;5123230;27;20078;-64
2023/12/18 09:42:39;;;;;;;19.08;12.70;;;;;;;;;;5123707;27;20039;-64
2023/12/18 09:45:06;;;;;;;20.90;12.40;;;;;;;;;;5123214;27;20038;-64
2023/12/18 09:47:32;;;;;;;19.15;12.23;;;;;;;;;;5105934;27;20043;-64
2023/12/18 09:49:59;;;;;;;19.17;12.60;;;;;;;;;;5126496;27;20584;-64
2023/12/18 09:52:26;;;;;;;20.27;12.65;;;;;;;;;;5124342;27;20103;-64
2023/12/18 09:54:52;;;;;;;16.80;11.25;;;;;;;;;;5123385;27;20458;-64
2023/12/18 09:57:18;;;;;;;28.67;13.68;;;;;;;;;;5123053;27;20057;-64
2023/12/18 09:59:45;;;;;;;26.40;14.10;;;;;;;;;;5123847;27;20073;-65
2023/12/18 10:02:12;;;;;;;20.65;12.40;;;;;;;;;;5123117;27;20440;-65
2023/12/18 10:04:44;;;;;;;19.17;11.75;;;;;;;;;;5123782;27;20165;-64
2023/12/18 10:07:10;;;;;;;29.33;14.50;;;;;;;;;;5122888;28;20043;-64
2023/12/18 10:09:36;;;;;;;19.95;12.73;;;;;;;;;;5122968;28;20039;-64
2023/12/18 10:12:03;;;;;;;24.67;13.68;;;;;;;;;;5123217;28;20524;-64
2023/12/18 10:14:29;;;;;;;19.52;12.23;;;;;;;;;;5103250;28;20055;-64
2023/12/18 10:16:56;;;;;;;22.17;14.10;;;;;;;;;;5103085;28;20094;-63
2023/12/18 10:19:27;;;;;;;20.50;12.23;;;;;;;;;;5122641;28;20078;-63
2023/12/18 10:21:54;;;;;;;19.25;12.75;;;;;;;;;;5121805;28;20054;-64
2023/12/18 10:24:20;;;;;;;17.83;12.27;;;;;;;;;;5122366;28;20100;-63
2023/12/18 10:26:48;;;;;;;21.48;11.07;;;;;;;;;;5123399;28;20122;-63
2023/12/18 10:29:14;;;;;;;21.15;11.32;;;;;;;;;;5122241;28;20055;-63
2023/12/18 10:31:40;;;;;;;17.70;11.95;;;;;;;;;;5121457;27;20031;-63
2023/12/18 10:34:06;;;;;;;20.38;12.13;;;;;;;;;;5122524;27;20048;-63
2023/12/18 10:36:35;;;;;;;19.63;12.75;;;;;;;;;;5103280;28;20043;-64
2023/12/18 10:39:02;;;;;;;22.10;13.48;;;;;;;;;;5123206;28;20035;-63
2023/12/18 10:41:30;;;;;;;19.52;12.25;;;;;;;;;;5123859;28;20084;-64
2023/12/18 10:43:56;;;;;;;22.83;12.32;;;;;;;;;;5122742;28;20885;-63
2023/12/18 10:46:25;;;;;;;19.83;12.63;;;;;;;;;;5121572;28;20724;-63
2023/12/18 10:48:52;;;;;;;19.27;12.38;;;;;;;;;;5122173;27;20050;-63
2023/12/18 10:51:21;;;;;;;20.63;12.48;;;;;;;;;;5102525;28;20047;-64
2023/12/18 10:53:48;;;;;;;20.95;12.10;;;;;;;;;;5122442;27;20042;-64
2023/12/18 10:56:16;;;;;;;18.77;11.82;;;;;;;;;;5124300;27;20262;-64
2023/12/18 10:58:43;;;;;;;18.00;11.45;;;;;;;;;;5106799;27;20623;-64
2023/12/18 11:01:10;;;;;;;22.63;12.77;;;;;;;;;;5126304;27;20050;-64
2023/12/18 11:03:37;;;;;;;21.17;10.73;;;;;;;;;;5124874;27;20039;-63
2023/12/18 11:06:03;;;;;;;18.52;12.13;;;;;;;;;;5100211;27;20043;-64
2023/12/18 11:08:29;;;;;;;19.90;11.75;;;;;;;;;;5122610;27;20050;-63
2023/12/18 11:10:58;;;;;;;18.15;11.85;;;;;;;;;;5071792;27;20047;-63
2023/12/18 11:13:36;;;;;;;18.85;12.50;;;;;;;;;;5124047;27;20051;-63
2023/12/18 11:16:21;;;;;;;23.27;11.45;;;;;;;;;;5122996;27;20047;-66
2023/12/18 11:19:07;;;;;;;21.85;11.65;;;;;;;;;;5123430;27;20560;-64
2023/12/18 11:21:36;;;;;;;15.50;11.57;;;;;;;;;;5103149;27;20047;-64
2023/12/18 11:24:03;;;;;;;18.92;11.18;;;;;;;;;;5123026;27;20110;-64
2023/12/18 11:26:30;;;;;;;18.48;10.80;;;;;;;;;;5123329;27;20135;-64
2023/12/18 11:28:58;;;;;;;17.02;11.75;;;;;;;;;;5124573;27;20061;-64
2023/12/18 11:31:24;;;;;;;22.35;11.50;;;;;;;;;;5123891;27;20057;-64
2023/12/18 11:34:02;;;;;;;23.13;12.60;;;;;;;;;;5125627;27;20129;-64
2023/12/18 11:36:28;;;;;;;19.25;10.38;;;;;;;;;;5120136;27;20058;-64
2023/12/18 11:38:55;;;;;;;15.10;10.65;;;;;;;;;;5121650;27;20170;-64
2023/12/18 11:41:39;;;;;;;18.33;11.20;;;;;;;;;;5123618;27;20092;-65
2023/12/18 11:44:09;;;;;;;23.02;12.48;;;;;;;;;;5123477;27;20039;-64
2023/12/18 11:46:37;;;;;;;17.58;11.65;;;;;;;;;;5102652;27;20076;-64
2023/12/18 11:49:06;;;;;;;30.15;13.50;;;;;;;;;;5122218;27;20054;-64
2023/12/18 11:51:32;;;;;;;18.92;12.63;;;;;;;;;;5122751;27;20039;-64
2023/12/18 11:54:00;;;;;;;23.77;12.70;;;;;;;;;;5122452;27;20047;-64
2023/12/18 11:56:38;;;;;;;18.05;12.40;;;;;;;;;;5122824;27;20378;-64
2023/12/18 11:59:04;;;;;;;18.20;11.75;;;;;;;;;;5122495;27;20535;-64
2023/12/18 12:01:31;;;;;;;18.48;13.35;;;;;;;;;;5121609;27;20492;-64
2023/12/18 12:03:58;;;;;;;21.10;12.77;;;;;;;;;;5122727;27;20046;-64
2023/12/18 12:06:25;;;;;;;20.20;12.95;;;;;;;;;;5121851;27;20042;-64
2023/12/18 12:08:51;;;;;;;19.00;13.50;;;;;;;;;;5122139;27;20493;-64
2023/12/18 12:11:19;;;;;;;21.38;12.80;;;;;;;;;;5122859;27;20502;-65
2023/12/18 12:13:47;;;;;;;16.38;12.27;;;;;;;;;;5122170;27;20047;-64
2023/12/18 12:16:19;;;;;;;20.35;13.50;;;;;;;;;;5122433;27;20141;-64
2023/12/18 12:18:47;;;;;;;19.40;12.57;;;;;;;;;;5122438;27;20046;-64
2023/12/18 12:21:17;;;;;;;23.08;13.98;;;;;;;;;;5121780;27;20035;-64
2023/12/18 12:23:49;;;;;;;23.45;14.93;;;;;;;;;;5122244;27;20046;-64
2023/12/18 12:26:22;;;;;;;20.73;13.93;;;;;;;;;;5122329;27;20455;-64
2023/12/18 12:28:49;;;;;;;23.98;12.57;;;;;;;;;;5122734;27;20529;-64
2023/12/18 12:31:18;;;;;;;19.35;13.70;;;;;;;;;;5121693;27;20027;-64
2023/12/18 12:33:45;;;;;;;21.33;11.68;;;;;;;;;;5122997;27;20039;-64
2023/12/18 12:36:16;;;;;;;19.75;13.02;;;;;;;;;;5121961;27;20039;-64
2023/12/18 12:38:43;;;;;;;23.10;13.85;;;;;;;;;;5121599;27;20066;-65
2023/12/18 12:41:10;;;;;;;21.55;14.20;;;;;;;;;;5122536;27;20071;-64
2023/12/18 12:43:36;;;;;;;23.95;14.52;;;;;;;;;;5122481;27;20093;-64
2023/12/18 12:46:02;;;;;;;21.83;14.35;;;;;;;;;;5121963;27;20055;-63
2023/12/18 12:48:28;;;;;;;25.17;15.77;;;;;;;;;;5120964;27;20035;-65
2023/12/18 12:50:57;;;;;;;22.58;13.68;;;;;;;;;;5121713;27;20039;-64
2023/12/18 12:53:23;;;;;;;21.55;14.40;;;;;;;;;;5123690;27;20071;-64
2023/12/18 12:55:49;;;;;;;20.55;14.45;;;;;;;;;;5104231;27;20088;-64
2023/12/18 12:58:16;;;;;;;20.25;12.98;;;;;;;;;;5122864;27;20039;-64
2023/12/18 13:00:42;;;;;;;22.20;15.40;;;;;;;;;;5102580;27;20133;-64
2023/12/18 13:03:08;;;;;;;21.02;14.35;;;;;;;;;;5120425;27;20035;-64
2023/12/18 13:05:34;;;;;;;25.67;16.13;;;;;;;;;;5121662;27;20568;-64
2023/12/18 13:08:00;;;;;;;20.88;13.95;;;;;;;;;;5121688;27;20042;-64
2023/12/18 13:10:30;;;;;;;24.13;15.68;;;;;;;;;;5121138;27;20200;-64
2023/12/18 13:12:57;;;;;;;21.13;14.43;;;;;;;;;;5120691;27;20465;-64
2023/12/18 13:15:23;;;;;;;24.33;14.88;;;;;;;;;;5121080;27;20059;-64
2023/12/18 13:17:50;;;;;;;22.73;15.13;;;;;;;;;;5101362;28;20134;-64
2023/12/18 13:20:18;;;;;;;24.13;15.27;;;;;;;;;;5121383;27;20047;-64
2023/12/18 13:22:44;;;;;;;24.63;15.07;;;;;;;;;;5118705;27;20051;-63
2023/12/18 13:25:10;;;;;;;24.02;14.75;;;;;;;;;;5121735;27;20053;-63
2023/12/18 13:27:36;;;;;;;19.92;14.80;;;;;;;;;;5120363;27;20085;-64
2023/12/18 13:30:03;;;;;;;21.08;15.52;;;;;;;;;;5121466;27;20049;-64
2023/12/18 13:32:29;;;;;;;18.33;13.70;;;;;;;;;;5120751;27;20031;-63
2023/12/18 13:34:56;;;;;;;20.48;13.13;;;;;;;;;;5120668;27;20053;-64
2023/12/18 13:37:22;;;;;;;25.05;14.23;;;;;;;;;;5120162;27;20039;-64
2023/12/18 13:39:49;;;;;;;18.27;13.90;;;;;;;;;;5119876;27;20039;-64
2023/12/18 13:42:15;;;;;;;24.80;13.93;;;;;;;;;;5120392;27;20047;-64
2023/12/18 13:44:42;;;;;;;17.63;12.07;;;;;;;;;;5119301;27;20041;-64
2023/12/18 13:47:08;;;;;;;23.80;14.32;;;;;;;;;;5098814;27;20047;-64
2023/12/18 13:49:41;;;;;;;23.73;15.70;;;;;;;;;;5121826;27;20043;-64
2023/12/18 13:52:07;;;;;;;21.95;12.85;;;;;;;;;;5102473;27;20172;-64
2023/12/18 13:54:33;;;;;;;26.33;14.57;;;;;;;;;;5121751;27;20039;-64
2023/12/18 13:57:00;;;;;;;20.70;11.90;;;;;;;;;;5119123;27;20120;-64
2023/12/18 13:59:26;;;;;;;22.10;13.48;;;;;;;;;;5120836;27;20524;-63
2023/12/18 14:01:52;;;;;;;21.13;13.98;;;;;;;;;;5121259;27;20058;-63
2023/12/18 14:04:18;;;;;;;22.27;12.75;;;;;;;;;;5102059;27;20567;-64
2023/12/18 14:06:44;;;;;;;21.83;14.50;;;;;;;;;;5120996;27;20054;-64
2023/12/18 14:09:10;;;;;;;22.60;12.73;;;;;;;;;;5122732;28;20514;-64
2023/12/18 14:11:37;;;;;;;20.05;12.90;;;;;;;;;;5123584;28;20027;-64
2023/12/18 14:14:03;;;;;;;17.90;13.35;;;;;;;;;;5100147;28;20575;-64
2023/12/18 14:16:29;;;;;;;14.98;10.82;;;;;;;;;;5102535;28;20043;-64
2023/12/18 14:18:55;;;;;;;24.27;12.95;;;;;;;;;;5102005;28;20408;-65
2023/12/18 14:21:22;;;;;;;19.20;10.88;;;;;;;;;;5101576;28;20054;-64
2023/12/18 14:23:48;;;;;;;15.30;11.73;;;;;;;;;;5100990;28;20128;-64